Puerto Banus, Marbella

>

This is an optional block (switch it off / on) in the settings - file ($SITE['banners'] = false;)

You can display ads, any other important text or photo’s using text / html or PHP code.

You can place one or more at the top and or bottom and it can all be different for content / size .



Meteosat more information blitzortung!


Radar lluvias  rain snow radar


Visita nuestra red de sitios de meteo:

Documentation for the template used

MeteoibericaRed estaciones Meteorologicas

MeteoclimaticRed estaciones Meteorologicas



Sin Advertencias climatologicas .En este momento tenemos Nivel Verde.    No hay Alarmas

Pagina Historial Weather Underground texto

Diario Resumen Diciembre 30, 2017 Unidades:  Métrico    impérial   Tanto
« Anterior Dia
Siguiente Dia »
Diario Semana Mensual Anual Personalizada
  Maxima: Minima: Media:
Temperatura: 18.2 °C 12.8 °C 15.2 °C
Punto de rocío: 14.9 °C 9.1 °C 11.3 °C
Humedad: 85 % 69 % 78 %
Velocidad del Viento: 14.8 km/h 0.0 km/h 5.3 km/h
Ráfagas de viento: 14.8 km/h - -
Viento:- - SW
Pression baro: 1027.3 hPa 1024.6 hPa -
Précipitaciones: 0.0 mm    
Historical Graphs
 
 
Datos de tabla para Diciembre 30, 2017
Tiempo Temperatura Punto de rocío Pression baro Viento Velocidad del Viento Ráfagas de viento Humedad Las precipitaciones Rate ( Hora )
00:03 14.8 °C 11.1 °C 1026.0 hPa Calm     78 % 0.0 mm
00:06 14.9 °C 11.2 °C 1026.0 hPa Calm     78 % 0.0 mm
00:11 15.0 °C 11.0 °C 1026.3 hPa Calm     77 % 0.0 mm
00:12 15.0 °C 11.0 °C 1026.3 hPa Calm     77 % 0.0 mm
00:13 14.9 °C 10.7 °C 1026.3 hPa Calm     76 % 0.0 mm
00:18 14.8 °C 10.6 °C 1026.3 hPa Calm     76 % 0.0 mm
00:19 14.8 °C 10.6 °C 1026.3 hPa Calm     76 % 0.0 mm
00:24 14.8 °C 10.8 °C 1026.3 hPa West 9.3 km/h 9.3 km/h 77 % 0.0 mm
00:29 14.8 °C 10.8 °C 1026.3 hPa WNW 5.6 km/h 5.6 km/h 77 % 0.0 mm
00:31 14.8 °C 10.8 °C 1026.3 hPa Calm     77 % 0.0 mm
00:34 14.7 °C 10.7 °C 1026.0 hPa Calm     77 % 0.0 mm
00:39 14.8 °C 10.6 °C 1026.3 hPa Calm     76 % 0.0 mm
00:40 14.7 °C 10.6 °C 1026.3 hPa Calm     76 % 0.0 mm
00:45 14.8 °C 10.6 °C 1026.3 hPa Calm     76 % 0.0 mm
00:46 14.8 °C 10.6 °C 1026.3 hPa Calm     76 % 0.0 mm
00:48 14.8 °C 10.6 °C 1026.3 hPa Calm     76 % 0.0 mm
00:52 14.8 °C 10.6 °C 1026.0 hPa Calm     76 % 0.0 mm
00:53 14.8 °C 10.6 °C 1026.0 hPa Calm     76 % 0.0 mm
00:58 14.8 °C 10.7 °C 1026.3 hPa Calm     76 % 0.0 mm
00:59 14.8 °C 10.7 °C 1026.0 hPa Calm     76 % 0.0 mm
01:01 14.8 °C 10.7 °C 1026.0 hPa WNW 6.4 km/h 6.4 km/h 76 % 0.0 mm
01:04 14.8 °C 10.7 °C 1026.0 hPa West 5.6 km/h 5.6 km/h 76 % 0.0 mm
01:09 14.8 °C 10.7 °C 1026.0 hPa West 3.2 km/h 3.2 km/h 76 % 0.0 mm
01:10 14.8 °C 10.7 °C 1026.0 hPa Calm   4.8 km/h 76 % 0.0 mm
01:14 14.8 °C 10.7 °C 1026.0 hPa Calm     76 % 0.0 mm
01:15 14.8 °C 10.7 °C 1026.0 hPa Calm     76 % 0.0 mm
01:22 14.8 °C 10.4 °C 1026.0 hPa Calm     75 % 0.0 mm
01:27 14.8 °C 10.4 °C 1026.0 hPa Calm     75 % 0.0 mm
01:32 14.8 °C 10.7 °C 1026.0 hPa West 5.6 km/h 5.6 km/h 76 % 0.0 mm
01:36 14.8 °C 10.6 °C 1026.0 hPa West 6.4 km/h 6.4 km/h 76 % 0.0 mm
01:38 14.7 °C 10.6 °C 1026.0 hPa West 3.7 km/h 3.7 km/h 76 % 0.0 mm
01:43 14.6 °C 10.4 °C 1026.0 hPa West 5.6 km/h 5.6 km/h 76 % 0.0 mm
01:44 14.6 °C 10.4 °C 1026.0 hPa West 5.6 km/h 5.6 km/h 76 % 0.0 mm
01:49 14.6 °C 10.4 °C 1025.6 hPa Calm     76 % 0.0 mm
01:54 14.2 °C 10.0 °C 1025.6 hPa West 4.8 km/h 4.8 km/h 76 % 0.0 mm
01:58 13.9 °C 10.0 °C 1025.6 hPa NNW 9.3 km/h 9.3 km/h 77 % 0.0 mm
02:03 13.8 °C 9.9 °C 1025.6 hPa North 5.6 km/h 5.6 km/h 77 % 0.0 mm
02:04 13.8 °C 10.1 °C 1025.6 hPa North 6.4 km/h 6.4 km/h 78 % 0.0 mm
02:08 13.9 °C 10.1 °C 1025.6 hPa North 5.6 km/h 5.6 km/h 78 % 0.0 mm
02:10 13.9 °C 10.1 °C 1025.6 hPa North 5.6 km/h 5.6 km/h 78 % 0.0 mm
02:15 13.9 °C 10.1 °C 1025.6 hPa Calm     78 % 0.0 mm
02:16 13.9 °C 10.2 °C 1025.6 hPa North 4.8 km/h 4.8 km/h 78 % 0.0 mm
02:17 13.9 °C 10.2 °C 1025.6 hPa North 4.8 km/h 4.8 km/h 78 % 0.0 mm
02:22 14.1 °C 10.3 °C 1025.6 hPa North 7.4 km/h 7.4 km/h 78 % 0.0 mm
02:27 14.3 °C 10.3 °C 1025.6 hPa North 9.3 km/h 9.3 km/h 77 % 0.0 mm
02:29 14.4 °C 10.3 °C 1025.6 hPa NNE 7.4 km/h 7.4 km/h 76 % 0.0 mm
02:34 14.7 °C 10.3 °C 1025.6 hPa NNE 4.8 km/h 4.8 km/h 75 % 0.0 mm
02:37 14.7 °C 10.3 °C 1025.6 hPa North 7.4 km/h 7.4 km/h 75 % 0.0 mm
02:39 14.8 °C 10.4 °C 1025.6 hPa North 6.4 km/h 6.4 km/h 75 % 0.0 mm
02:44 14.8 °C 10.2 °C 1025.6 hPa North 5.6 km/h 5.6 km/h 74 % 0.0 mm
02:45 14.9 °C 10.3 °C 1025.6 hPa North 6.4 km/h 6.4 km/h 74 % 0.0 mm
02:46 14.9 °C 10.3 °C 1025.6 hPa North 6.4 km/h 6.4 km/h 74 % 0.0 mm
02:51 14.9 °C 10.3 °C 1025.6 hPa Calm     74 % 0.0 mm
02:53 14.9 °C 10.3 °C 1025.6 hPa Calm     74 % 0.0 mm
02:57 14.9 °C 10.3 °C 1025.6 hPa Calm     74 % 0.0 mm
03:02 14.9 °C 10.3 °C 1025.6 hPa North 5.6 km/h 5.6 km/h 74 % 0.0 mm
03:03 14.9 °C 10.3 °C 1025.6 hPa North 5.6 km/h 5.6 km/h 74 % 0.0 mm
03:08 14.9 °C 10.3 °C 1025.6 hPa North 5.6 km/h 5.6 km/h 74 % 0.0 mm
03:09 14.9 °C 10.3 °C 1025.6 hPa North 5.6 km/h 5.6 km/h 74 % 0.0 mm
03:11 14.9 °C 10.2 °C 1025.6 hPa North 1.9 km/h 1.9 km/h 73 % 0.0 mm
03:16 14.8 °C 10.2 °C 1025.6 hPa North 5.6 km/h 5.6 km/h 74 % 0.0 mm
03:21 14.6 °C 10.0 °C 1025.6 hPa North 9.7 km/h 9.7 km/h 74 % 0.0 mm
03:22 14.6 °C 10.0 °C 1025.6 hPa North 11.1 km/h 11.1 km/h 74 % 0.0 mm
03:27 14.7 °C 10.1 °C 1025.6 hPa NNW 11.1 km/h 11.1 km/h 74 % 0.0 mm
03:28 14.7 °C 10.1 °C 1025.6 hPa NNW 9.3 km/h 9.3 km/h 74 % 0.0 mm
03:33 14.8 °C 10.2 °C 1025.6 hPa NNW 9.3 km/h 9.3 km/h 74 % 0.0 mm
03:35 14.8 °C 10.2 °C 1025.6 hPa North 8.0 km/h 11.3 km/h 74 % 0.0 mm
03:38 14.8 °C 10.1 °C 1025.6 hPa North 9.3 km/h 9.3 km/h 73 % 0.0 mm
03:40 14.9 °C 10.3 °C 1025.6 hPa North 9.3 km/h 9.3 km/h 74 % 0.0 mm
03:45 15.0 °C 10.2 °C 1025.6 hPa North 7.4 km/h 7.4 km/h 73 % 0.0 mm
03:46 15.0 °C 10.2 °C 1025.6 hPa North 8.0 km/h 8.0 km/h 73 % 0.0 mm
03:48 15.1 °C 10.3 °C 1025.6 hPa NNW 9.3 km/h 9.3 km/h 73 % 0.0 mm
03:52 15.2 °C 10.4 °C 1025.3 hPa North 9.7 km/h 9.7 km/h 73 % 0.0 mm
03:57 15.3 °C 10.3 °C 1025.3 hPa North 9.3 km/h 9.3 km/h 72 % 0.0 mm
04:02 15.4 °C 10.4 °C 1025.3 hPa North 8.0 km/h 8.0 km/h 72 % 0.0 mm
04:03 15.4 °C 10.4 °C 1025.3 hPa North 7.4 km/h 7.4 km/h 72 % 0.0 mm
04:08 15.4 °C 10.2 °C 1025.3 hPa NNW 8.0 km/h 8.0 km/h 71 % 0.0 mm
04:09 15.5 °C 10.3 °C 1025.3 hPa NNW 7.4 km/h 7.4 km/h 71 % 0.0 mm
04:14 15.4 °C 10.2 °C 1025.3 hPa NNE 9.3 km/h 9.3 km/h 71 % 0.0 mm
04:20 15.1 °C 10.3 °C 1025.3 hPa NNE 3.7 km/h 3.7 km/h 73 % 0.0 mm
04:25 15.0 °C 10.2 °C 1025.3 hPa Calm     73 % 0.0 mm
04:27 15.0 °C 10.2 °C 1025.3 hPa NNE 3.2 km/h 3.2 km/h 73 % 0.0 mm
04:32 14.9 °C 10.6 °C 1025.3 hPa NNE 3.7 km/h 3.7 km/h 75 % 0.0 mm
04:37 14.8 °C 10.4 °C 1025.3 hPa NNE 5.6 km/h 5.6 km/h 75 % 0.0 mm
04:42 14.7 °C 10.3 °C 1025.3 hPa NNE 5.6 km/h 5.6 km/h 75 % 0.0 mm
04:43 14.7 °C 10.3 °C 1025.3 hPa NNE 5.6 km/h 5.6 km/h 75 % 0.0 mm
04:48 14.8 °C 10.4 °C 1024.9 hPa Calm     75 % 0.0 mm
04:49 14.8 °C 10.2 °C 1024.9 hPa NNE 1.9 km/h   74 % 0.0 mm
04:53 14.7 °C 10.3 °C 1024.9 hPa NNE 3.7 km/h 3.7 km/h 75 % 0.0 mm
04:55 14.7 °C 10.3 °C 1024.9 hPa NNE 1.9 km/h 1.9 km/h 75 % 0.0 mm
05:00 14.7 °C 10.3 °C 1024.9 hPa NNE 5.6 km/h 5.6 km/h 75 % 0.0 mm
05:02 14.7 °C 10.3 °C 1024.9 hPa NNE 3.7 km/h 3.7 km/h 75 % 0.0 mm
05:06 14.4 °C 10.1 °C 1024.9 hPa Calm     75 % 0.0 mm
05:07 14.3 °C 9.9 °C 1024.9 hPa Calm     75 % 0.0 mm
05:12 14.2 °C 10.2 °C 1024.9 hPa Calm     77 % 0.0 mm
05:13 14.2 °C 10.4 °C 1024.9 hPa Calm     78 % 0.0 mm
05:18 14.2 °C 10.6 °C 1024.9 hPa Calm     79 % 0.0 mm
05:21 14.0 °C 10.4 °C 1024.9 hPa Calm     79 % 0.0 mm
05:23 13.8 °C 10.3 °C 1024.9 hPa Calm     79 % 0.0 mm
05:28 13.7 °C 10.2 °C 1024.9 hPa Calm     79 % 0.0 mm
05:30 13.7 °C 10.2 °C 1024.9 hPa Calm     79 % 0.0 mm
05:32 13.7 °C 10.2 °C 1024.9 hPa Calm     79 % 0.0 mm
05:37 13.7 °C 10.2 °C 1024.9 hPa Calm     79 % 0.0 mm
05:38 13.7 °C 10.2 °C 1024.9 hPa Calm     79 % 0.0 mm
05:43 13.8 °C 10.4 °C 1024.9 hPa Calm     80 % 0.0 mm
05:48 13.8 °C 10.2 °C 1024.9 hPa Calm     79 % 0.0 mm
05:49 13.8 °C 10.2 °C 1024.9 hPa Calm     79 % 0.0 mm
05:54 13.7 °C 10.1 °C 1024.9 hPa Calm     79 % 0.0 mm
05:55 13.7 °C 10.2 °C 1024.9 hPa Calm     79 % 0.0 mm
05:56 13.7 °C 10.1 °C 1024.9 hPa Calm     79 % 0.0 mm
06:01 13.7 °C 10.3 °C 1024.9 hPa Calm     80 % 0.0 mm
06:06 13.7 °C 10.3 °C 1024.9 hPa Calm     80 % 0.0 mm
06:07 13.6 °C 10.2 °C 1024.9 hPa Calm     80 % 0.0 mm
06:12 13.4 °C 9.8 °C 1024.9 hPa North 6.4 km/h 6.4 km/h 79 % 0.0 mm
06:13 13.4 °C 9.8 °C 1024.9 hPa North 5.6 km/h 5.6 km/h 79 % 0.0 mm
06:14 13.3 °C 9.8 °C 1024.9 hPa North 7.4 km/h 7.4 km/h 79 % 0.0 mm
06:19 13.3 °C 9.8 °C 1024.9 hPa North 6.4 km/h 6.4 km/h 79 % 0.0 mm
06:24 13.3 °C 9.7 °C 1024.9 hPa North 5.6 km/h 5.6 km/h 79 % 0.0 mm
06:25 13.3 °C 9.7 °C 1024.9 hPa North 5.6 km/h 5.6 km/h 79 % 0.0 mm
06:30 13.2 °C 9.6 °C 1024.9 hPa North 5.6 km/h 5.6 km/h 79 % 0.0 mm
06:35 13.1 °C 9.6 °C 1024.9 hPa NNW 8.0 km/h 8.0 km/h 79 % 0.0 mm
06:37 13.1 °C 9.6 °C 1024.9 hPa NNW 9.3 km/h 9.3 km/h 79 % 0.0 mm
06:44 13.3 °C 9.7 °C 1024.9 hPa NNW 5.6 km/h 5.6 km/h 79 % 0.0 mm
06:47 13.3 °C 9.7 °C 1025.3 hPa NNW 3.2 km/h 3.2 km/h 79 % 0.0 mm
06:50 13.3 °C 9.8 °C 1025.3 hPa NNW 3.7 km/h 3.7 km/h 79 % 0.0 mm
06:53 13.3 °C 9.8 °C 1025.3 hPa NNW 3.7 km/h 3.7 km/h 79 % 0.0 mm
06:55 13.3 °C 9.7 °C 1025.3 hPa NNW 5.6 km/h 5.6 km/h 79 % 0.0 mm
06:59 13.2 °C 9.7 °C 1024.9 hPa NNW 8.0 km/h 8.0 km/h 79 % 0.0 mm
07:04 13.2 °C 9.7 °C 1025.3 hPa North 5.6 km/h 5.6 km/h 79 % 0.0 mm
07:06 13.3 °C 9.7 °C 1025.3 hPa North 9.3 km/h 9.3 km/h 79 % 0.0 mm
07:10 13.4 °C 9.9 °C 1025.3 hPa North 13.0 km/h 13.0 km/h 79 % 0.0 mm
07:15 13.6 °C 9.8 °C 1025.3 hPa NNW 8.0 km/h 8.0 km/h 78 % 0.0 mm
07:18 13.7 °C 9.9 °C 1025.3 hPa North 9.3 km/h 9.3 km/h 78 % 0.0 mm
07:21 13.7 °C 9.7 °C 1025.3 hPa North 5.6 km/h 5.6 km/h 77 % 0.0 mm
07:26 13.7 °C 9.7 °C 1025.3 hPa North 5.6 km/h 5.6 km/h 77 % 0.0 mm
07:28 13.7 °C 9.7 °C 1025.3 hPa NNE 5.6 km/h 5.6 km/h 77 % 0.0 mm
07:32 13.6 °C 9.7 °C 1025.3 hPa NNE 5.6 km/h 5.6 km/h 77 % 0.0 mm
07:33 13.6 °C 9.6 °C 1025.3 hPa Calm     77 % 0.0 mm
07:38 13.5 °C 9.6 °C 1025.3 hPa North 7.4 km/h 7.4 km/h 77 % 0.0 mm
07:39 13.5 °C 9.6 °C 1025.6 hPa North 7.4 km/h 7.4 km/h 77 % 0.0 mm
07:42 13.4 °C 9.5 °C 1025.6 hPa North 5.6 km/h 5.6 km/h 77 % 0.0 mm
07:47 13.5 °C 9.6 °C 1025.6 hPa North 9.3 km/h 9.3 km/h 77 % 0.0 mm
07:49 13.6 °C 9.6 °C 1025.6 hPa North 9.3 km/h 9.3 km/h 77 % 0.0 mm
07:50 13.6 °C 9.6 °C 1025.6 hPa North 9.3 km/h 9.3 km/h 77 % 0.0 mm
07:55 13.6 °C 9.6 °C 1025.6 hPa North 7.4 km/h 7.4 km/h 77 % 0.0 mm
08:00 13.6 °C 9.6 °C 1026.0 hPa North 7.4 km/h 7.4 km/h 77 % 0.0 mm
08:01 13.6 °C 9.6 °C 1026.0 hPa North 7.4 km/h 7.4 km/h 77 % 0.0 mm
08:03 13.6 °C 9.7 °C 1026.0 hPa North 6.4 km/h 6.4 km/h 77 % 0.0 mm
08:06 13.6 °C 9.4 °C 1026.0 hPa North 9.3 km/h 9.3 km/h 76 % 0.0 mm
08:10 13.6 °C 9.4 °C 1026.0 hPa North 7.4 km/h 7.4 km/h 76 % 0.0 mm
08:13 13.6 °C 9.4 °C 1026.0 hPa North 9.3 km/h 9.3 km/h 76 % 0.0 mm
08:18 13.6 °C 9.4 °C 1026.0 hPa NNW 5.6 km/h 5.6 km/h 76 % 0.0 mm
08:23 13.4 °C 9.3 °C 1026.0 hPa NNW 8.0 km/h 8.0 km/h 76 % 0.0 mm
08:27 13.3 °C 9.4 °C 1026.0 hPa North 9.7 km/h 9.7 km/h 77 % 0.0 mm
08:30 13.3 °C 9.3 °C 1026.0 hPa North 8.0 km/h 9.7 km/h 77 % 0.0 mm
08:35 13.1 °C 9.1 °C 1026.0 hPa North 11.1 km/h 11.1 km/h 77 % 0.0 mm
08:36 13.1 °C 9.1 °C 1026.0 hPa North 11.1 km/h 11.1 km/h 77 % 0.0 mm
08:41 13.0 °C 9.3 °C 1026.0 hPa North 11.1 km/h 11.1 km/h 78 % 0.0 mm
08:42 13.0 °C 9.3 °C 1026.0 hPa NNW 11.1 km/h 11.1 km/h 78 % 0.0 mm
08:47 13.1 °C 9.3 °C 1026.0 hPa NNW 11.1 km/h 11.1 km/h 78 % 0.0 mm
08:49 13.1 °C 9.3 °C 1026.0 hPa North 9.3 km/h 9.3 km/h 78 % 0.0 mm
08:54 13.1 °C 9.2 °C 1026.0 hPa NNW 9.3 km/h 9.3 km/h 77 % 0.0 mm
08:59 13.2 °C 9.2 °C 1026.0 hPa North 7.4 km/h 7.4 km/h 77 % 0.0 mm
09:01 13.2 °C 9.2 °C 1026.0 hPa North 6.4 km/h 6.4 km/h 77 % 0.0 mm
09:06 13.2 °C 9.4 °C 1026.0 hPa NNW 9.7 km/h 9.7 km/h 78 % 0.0 mm
09:07 13.2 °C 9.4 °C 1026.0 hPa North 9.3 km/h 9.3 km/h 78 % 0.0 mm
09:11 13.3 °C 9.4 °C 1026.0 hPa NNW 9.7 km/h 9.7 km/h 77 % 0.0 mm
09:16 13.6 °C 9.6 °C 1026.0 hPa North 9.7 km/h 9.7 km/h 77 % 0.0 mm
09:21 13.8 °C 9.6 °C 1026.0 hPa NNW 9.3 km/h 9.3 km/h 76 % 0.0 mm
09:26 13.9 °C 9.8 °C 1026.0 hPa North 8.0 km/h 8.0 km/h 76 % 0.0 mm
09:28 14.0 °C 9.8 °C 1026.0 hPa North 8.0 km/h 8.0 km/h 76 % 0.0 mm
09:33 14.2 °C 9.8 °C 1026.3 hPa North 7.4 km/h 7.4 km/h 75 % 0.0 mm
09:34 14.2 °C 9.8 °C 1026.3 hPa North 7.4 km/h 7.4 km/h 75 % 0.0 mm
09:39 14.3 °C 9.9 °C 1026.3 hPa North 9.3 km/h 9.3 km/h 75 % 0.0 mm
09:44 14.5 °C 10.1 °C 1026.3 hPa North 9.7 km/h 9.7 km/h 75 % 0.0 mm
09:46 14.5 °C 9.9 °C 1026.3 hPa NNE 9.7 km/h 9.7 km/h 74 % 0.0 mm
09:50 14.6 °C 10.0 °C 1026.3 hPa North 9.3 km/h 9.3 km/h 74 % 0.0 mm
09:54 14.7 °C 10.1 °C 1026.6 hPa North 6.4 km/h 6.4 km/h 74 % 0.0 mm
09:59 14.8 °C 10.0 °C 1026.3 hPa North 9.3 km/h 9.3 km/h 73 % 0.0 mm
10:00 14.8 °C 10.0 °C 1026.3 hPa North 9.3 km/h 9.3 km/h 73 % 0.0 mm
10:02 14.9 °C 10.1 °C 1026.3 hPa NNE 11.1 km/h 11.1 km/h 73 % 0.0 mm
10:06 14.9 °C 10.2 °C 1026.6 hPa NNE 7.4 km/h 7.4 km/h 73 % 0.0 mm
10:07 15.0 °C 10.2 °C 1026.6 hPa NNE 6.4 km/h 6.4 km/h 73 % 0.0 mm
10:11 15.1 °C 10.3 °C 1026.6 hPa NNE 7.4 km/h 7.4 km/h 73 % 0.0 mm
10:16 15.3 °C 10.4 °C 1026.6 hPa NNE 5.6 km/h 5.6 km/h 73 % 0.0 mm
10:20 15.4 °C 10.6 °C 1026.6 hPa NNE 7.4 km/h 7.4 km/h 73 % 0.0 mm
10:22 15.5 °C 10.7 °C 1026.6 hPa NNE 7.4 km/h 7.4 km/h 73 % 0.0 mm
10:27 15.7 °C 10.7 °C 1027.0 hPa NNE 6.4 km/h 6.4 km/h 72 % 0.0 mm
10:28 15.7 °C 10.7 °C 1027.0 hPa NNE 5.6 km/h 5.6 km/h 72 % 0.0 mm
10:30 15.8 °C 10.8 °C 1026.6 hPa NNE 6.4 km/h 6.4 km/h 72 % 0.0 mm
10:35 16.0 °C 10.7 °C 1026.6 hPa NNE 8.0 km/h 8.0 km/h 71 % 0.0 mm
10:36 16.1 °C 10.8 °C 1026.6 hPa NNE 7.4 km/h 7.4 km/h 71 % 0.0 mm
10:41 16.2 °C 10.7 °C 1027.0 hPa NNE 5.6 km/h 5.6 km/h 70 % 0.0 mm
10:43 16.3 °C 10.8 °C 1027.0 hPa NNE 5.6 km/h 5.6 km/h 70 % 0.0 mm
10:45 16.4 °C 10.9 °C 1027.0 hPa NNE 5.6 km/h 5.6 km/h 70 % 0.0 mm
10:48 16.6 °C 11.3 °C 1027.0 hPa NNE 5.6 km/h 5.6 km/h 71 % 0.0 mm
10:53 16.7 °C 11.2 °C 1027.0 hPa NNE 3.7 km/h 3.7 km/h 70 % 0.0 mm
10:54 16.8 °C 11.3 °C 1027.0 hPa NNE 3.7 km/h 3.7 km/h 70 % 0.0 mm
10:58 16.8 °C 11.1 °C 1027.0 hPa NNE 1.9 km/h 1.9 km/h 69 % 0.0 mm
11:01 16.8 °C 11.1 °C 1027.0 hPa NNE 4.8 km/h 4.8 km/h 69 % 0.0 mm
11:06 16.9 °C 11.7 °C 1027.0 hPa NNE 5.6 km/h 5.6 km/h 71 % 0.0 mm
11:07 16.9 °C 11.7 °C 1027.0 hPa NNE 5.6 km/h 5.6 km/h 71 % 0.0 mm
11:08 16.9 °C 11.7 °C 1027.0 hPa NNE 5.6 km/h 5.6 km/h 71 % 0.0 mm
11:13 16.9 °C 12.1 °C 1027.3 hPa NNE 5.6 km/h 5.6 km/h 73 % 0.0 mm
11:15 16.9 °C 12.2 °C 1027.3 hPa NNE 5.6 km/h 5.6 km/h 74 % 0.0 mm
11:20 16.8 °C 12.3 °C 1027.3 hPa NNE 3.7 km/h 3.7 km/h 75 % 0.0 mm
11:21 16.7 °C 12.3 °C 1027.3 hPa North 5.6 km/h 5.6 km/h 75 % 0.0 mm
11:23 16.7 °C 12.2 °C 1027.3 hPa North 5.6 km/h 5.6 km/h 75 % 0.0 mm
11:28 16.4 °C 12.0 °C 1027.3 hPa NNW 5.6 km/h 5.6 km/h 75 % 0.0 mm
11:29 16.4 °C 12.0 °C 1027.3 hPa WNW 6.4 km/h 6.4 km/h 75 % 0.0 mm
11:33 16.3 °C 12.1 °C 1027.3 hPa WSW 6.4 km/h 6.4 km/h 76 % 0.0 mm
11:34 16.3 °C 12.1 °C 1027.3 hPa WSW 7.4 km/h 7.4 km/h 76 % 0.0 mm
11:39 16.1 °C 11.9 °C 1027.3 hPa WSW 5.6 km/h 5.6 km/h 76 % 0.0 mm
11:44 16.1 °C 11.6 °C 1027.3 hPa WSW 8.0 km/h 8.0 km/h 75 % 0.0 mm
11:45 16.1 °C 11.6 °C 1027.3 hPa WSW 8.0 km/h 8.0 km/h 75 % 0.0 mm
11:47 16.1 °C 11.6 °C 1027.3 hPa WSW 7.4 km/h 7.4 km/h 75 % 0.0 mm
11:52 16.1 °C 11.7 °C 1027.3 hPa WSW 5.6 km/h 5.6 km/h 75 % 0.0 mm
11:58 16.2 °C 11.6 °C 1027.3 hPa WSW 6.4 km/h 6.4 km/h 74 % 0.0 mm
12:01 16.3 °C 11.6 °C 1027.3 hPa WSW 6.4 km/h 6.4 km/h 74 % 0.0 mm
12:03 16.3 °C 11.9 °C 1027.3 hPa WSW 8.0 km/h 8.0 km/h 75 % 0.0 mm
12:07 16.4 °C 11.9 °C 1027.3 hPa WSW 5.6 km/h 5.6 km/h 75 % 0.0 mm
12:12 16.5 °C 12.3 °C 1027.3 hPa WSW 6.4 km/h 6.4 km/h 76 % 0.0 mm
12:17 16.5 °C 12.1 °C 1027.0 hPa WSW 6.4 km/h 6.4 km/h 75 % 0.0 mm
12:18 16.4 °C 12.0 °C 1027.0 hPa WSW 5.6 km/h 5.6 km/h 75 % 0.0 mm
12:23 16.6 °C 11.9 °C 1027.0 hPa WSW 8.0 km/h 8.0 km/h 74 % 0.0 mm
12:24 16.6 °C 11.9 °C 1027.0 hPa WSW 8.0 km/h 8.0 km/h 74 % 0.0 mm
12:29 16.6 °C 11.7 °C 1027.0 hPa WSW 6.4 km/h 6.4 km/h 73 % 0.0 mm
12:32 16.7 °C 11.7 °C 1027.0 hPa SW 9.3 km/h 9.3 km/h 72 % 0.0 mm
12:36 16.8 °C 11.9 °C 1027.0 hPa SW 9.3 km/h 9.3 km/h 73 % 0.0 mm
12:41 16.7 °C 11.7 °C 1027.0 hPa SW 8.0 km/h 8.0 km/h 72 % 0.0 mm
12:43 16.7 °C 11.7 °C 1027.0 hPa SW 9.3 km/h 9.3 km/h 72 % 0.0 mm
12:48 16.8 °C 11.8 °C 1026.6 hPa SW 7.4 km/h 7.4 km/h 72 % 0.0 mm
12:53 16.9 °C 12.0 °C 1026.6 hPa SW 9.3 km/h 9.3 km/h 73 % 0.0 mm
12:54 16.9 °C 12.2 °C 1026.6 hPa SW 9.3 km/h 9.3 km/h 74 % 0.0 mm
12:55 16.9 °C 12.2 °C 1026.6 hPa SW 8.0 km/h 8.0 km/h 74 % 0.0 mm
13:00 16.8 °C 12.1 °C 1026.6 hPa WSW 9.7 km/h 9.7 km/h 74 % 0.0 mm
13:02 16.7 °C 12.1 °C 1026.6 hPa WSW 9.3 km/h 9.3 km/h 74 % 0.0 mm
13:03 16.7 °C 12.1 °C 1026.6 hPa WSW 7.4 km/h 7.4 km/h 74 % 0.0 mm
13:08 16.9 °C 12.2 °C 1026.6 hPa WSW 8.0 km/h 8.0 km/h 74 % 0.0 mm
13:13 16.9 °C 12.4 °C 1026.6 hPa WSW 7.4 km/h 7.4 km/h 75 % 0.0 mm
13:18 17.0 °C 12.6 °C 1026.6 hPa WSW 7.4 km/h 7.4 km/h 75 % 0.0 mm
13:19 17.0 °C 12.6 °C 1026.6 hPa WSW 7.4 km/h 7.4 km/h 75 % 0.0 mm
13:24 17.0 °C 12.6 °C 1026.3 hPa WSW 7.4 km/h 7.4 km/h 75 % 0.0 mm
13:29 17.1 °C 12.6 °C 1026.3 hPa WSW 5.6 km/h 5.6 km/h 75 % 0.0 mm
13:30 17.1 °C 12.7 °C 1026.3 hPa WSW 5.6 km/h 5.6 km/h 75 % 0.0 mm
13:35 17.2 °C 12.7 °C 1026.3 hPa WSW 5.6 km/h 5.6 km/h 75 % 0.0 mm
13:36 17.2 °C 12.6 °C 1026.3 hPa WSW 5.6 km/h 5.6 km/h 74 % 0.0 mm
13:42 17.4 °C 12.8 °C 1026.3 hPa WSW 5.6 km/h 5.6 km/h 74 % 0.0 mm
13:47 17.5 °C 12.4 °C 1026.3 hPa WSW 6.4 km/h 6.4 km/h 72 % 0.0 mm
13:52 17.6 °C 12.9 °C 1026.0 hPa WSW 5.6 km/h 5.6 km/h 74 % 0.0 mm
13:54 17.6 °C 12.9 °C 1026.0 hPa WSW 5.6 km/h 5.6 km/h 74 % 0.0 mm
13:55 17.6 °C 13.1 °C 1026.0 hPa WSW 5.6 km/h 5.6 km/h 75 % 0.0 mm
14:00 17.6 °C 13.3 °C 1026.0 hPa WSW 5.6 km/h 5.6 km/h 76 % 0.0 mm
14:01 17.7 °C 13.4 °C 1026.0 hPa WSW 5.6 km/h 5.6 km/h 76 % 0.0 mm
14:06 17.5 °C 13.0 °C 1026.0 hPa WSW 5.6 km/h 5.6 km/h 75 % 0.0 mm
14:07 17.5 °C 13.0 °C 1026.0 hPa WSW 5.6 km/h 5.6 km/h 75 % 0.0 mm
14:09 17.5 °C 13.2 °C 1026.0 hPa WSW 5.6 km/h 5.6 km/h 76 % 0.0 mm
14:12 17.6 °C 13.5 °C 1026.0 hPa WSW 5.6 km/h 5.6 km/h 77 % 0.0 mm
14:16 17.7 °C 13.6 °C 1025.6 hPa WSW 3.7 km/h 3.7 km/h 77 % 0.0 mm
14:17 17.7 °C 13.6 °C 1025.6 hPa WSW 7.4 km/h 7.4 km/h 77 % 0.0 mm
14:22 17.8 °C 13.9 °C 1025.6 hPa WSW 3.2 km/h 3.2 km/h 78 % 0.0 mm
14:23 17.8 °C 13.9 °C 1025.6 hPa WSW 1.9 km/h 1.9 km/h 78 % 0.0 mm
14:25 17.9 °C 14.0 °C 1025.6 hPa WSW 3.7 km/h 3.7 km/h 78 % 0.0 mm
14:28 17.9 °C 14.1 °C 1025.6 hPa WSW 1.9 km/h 1.9 km/h 78 % 0.0 mm
14:33 18.0 °C 14.3 °C 1025.3 hPa Calm     79 % 0.0 mm
14:36 18.1 °C 14.3 °C 1025.3 hPa Calm     79 % 0.0 mm
14:41 18.2 °C 14.4 °C 1025.3 hPa Calm     79 % 0.0 mm
14:43 18.1 °C 14.3 °C 1025.3 hPa WSW 1.9 km/h   79 % 0.0 mm
14:48 18.1 °C 14.4 °C 1025.3 hPa Calm     79 % 0.0 mm
14:49 18.1 °C 14.3 °C 1025.3 hPa Calm     79 % 0.0 mm
14:50 18.1 °C 14.4 °C 1025.3 hPa Calm     79 % 0.0 mm
14:55 17.8 °C 14.2 °C 1025.3 hPa WSW 1.9 km/h 1.9 km/h 79 % 0.0 mm
14:58 17.7 °C 14.2 °C 1025.3 hPa Calm     80 % 0.0 mm
15:03 17.4 °C 13.9 °C 1025.3 hPa WSW 3.7 km/h 3.7 km/h 80 % 0.0 mm
15:04 17.4 °C 14.1 °C 1025.3 hPa WSW 5.6 km/h 5.6 km/h 81 % 0.0 mm
15:08 17.2 °C 14.1 °C 1024.9 hPa WSW 3.2 km/h 3.2 km/h 82 % 0.0 mm
15:13 17.0 °C 13.9 °C 1024.9 hPa WSW 3.7 km/h 3.7 km/h 82 % 0.0 mm
15:14 16.9 °C 13.8 °C 1024.9 hPa WSW 5.6 km/h 5.6 km/h 82 % 0.0 mm
15:16 16.9 °C 13.8 °C 1024.9 hPa WSW 5.6 km/h 5.6 km/h 82 % 0.0 mm
15:20 16.8 °C 13.7 °C 1024.9 hPa WSW 5.6 km/h 5.6 km/h 82 % 0.0 mm
15:25 16.6 °C 13.7 °C 1024.9 hPa WSW 4.8 km/h 4.8 km/h 83 % 0.0 mm
15:30 16.4 °C 13.6 °C 1024.9 hPa WSW 3.2 km/h 4.8 km/h 83 % 0.0 mm
15:35 16.3 °C 13.6 °C 1024.6 hPa Calm     84 % 0.0 mm
15:36 16.3 °C 13.6 °C 1024.6 hPa Calm     84 % 0.0 mm
15:41 16.3 °C 13.6 °C 1024.6 hPa WSW 1.9 km/h 1.9 km/h 84 % 0.0 mm
15:43 16.3 °C 13.8 °C 1024.6 hPa WSW 3.7 km/h 3.7 km/h 85 % 0.0 mm
15:46 16.4 °C 13.8 °C 1024.6 hPa WSW 1.9 km/h 1.9 km/h 85 % 0.0 mm
15:50 16.4 °C 13.9 °C 1024.6 hPa Calm     85 % 0.0 mm
15:55 16.5 °C 13.9 °C 1024.6 hPa Calm     85 % 0.0 mm
15:56 16.6 °C 14.0 °C 1024.6 hPa Calm     85 % 0.0 mm
15:59 16.6 °C 14.0 °C 1024.6 hPa Calm     85 % 0.0 mm
16:01 16.6 °C 14.1 °C 1024.6 hPa Calm     85 % 0.0 mm
16:06 17.1 °C 14.5 °C 1024.6 hPa Calm     85 % 0.0 mm
16:08 17.2 °C 14.6 °C 1024.6 hPa Calm     85 % 0.0 mm
16:12 17.3 °C 14.6 °C 1024.6 hPa Calm     84 % 0.0 mm
16:14 17.3 °C 14.6 °C 1024.6 hPa WSW 1.9 km/h   84 % 0.0 mm
16:17 17.5 °C 14.8 °C 1024.6 hPa Calm     84 % 0.0 mm
16:21 17.6 °C 14.9 °C 1024.6 hPa Calm     84 % 0.0 mm
16:22 17.7 °C 14.7 °C 1024.9 hPa Calm     83 % 0.0 mm
16:27 17.6 °C 14.4 °C 1024.6 hPa WSW 3.7 km/h 3.7 km/h 82 % 0.0 mm
16:29 17.6 °C 14.4 °C 1024.9 hPa WSW 3.7 km/h 3.7 km/h 82 % 0.0 mm
16:34 17.6 °C 14.4 °C 1024.6 hPa Calm     82 % 0.0 mm
16:35 17.6 °C 14.4 °C 1024.6 hPa Calm     82 % 0.0 mm
16:40 17.6 °C 14.4 °C 1024.6 hPa WSW 5.6 km/h 5.6 km/h 82 % 0.0 mm
16:41 17.6 °C 14.4 °C 1024.9 hPa WSW 5.6 km/h 5.6 km/h 82 % 0.0 mm
16:46 17.6 °C 14.4 °C 1024.6 hPa WSW 5.6 km/h 5.6 km/h 82 % 0.0 mm
16:47 17.6 °C 14.4 °C 1024.6 hPa WSW 5.6 km/h 5.6 km/h 82 % 0.0 mm
16:52 17.4 °C 14.2 °C 1024.6 hPa WSW 6.4 km/h 6.4 km/h 81 % 0.0 mm
16:54 17.3 °C 13.8 °C 1024.6 hPa WSW 7.4 km/h 7.4 km/h 80 % 0.0 mm
16:56 17.2 °C 13.7 °C 1024.9 hPa WSW 5.6 km/h 5.6 km/h 80 % 0.0 mm
17:00 17.1 °C 13.4 °C 1024.6 hPa WSW 6.4 km/h 6.4 km/h 79 % 0.0 mm
17:01 17.0 °C 13.3 °C 1024.9 hPa WSW 5.6 km/h 5.6 km/h 79 % 0.0 mm
17:06 17.0 °C 13.3 °C 1024.6 hPa WSW 4.8 km/h 4.8 km/h 79 % 0.0 mm
17:08 17.1 °C 13.2 °C 1024.6 hPa WSW 5.6 km/h 5.6 km/h 78 % 0.0 mm
17:13 17.1 °C 13.0 °C 1024.6 hPa WSW 5.6 km/h 5.6 km/h 77 % 0.0 mm
17:14 17.1 °C 13.0 °C 1024.6 hPa WSW 5.6 km/h 5.6 km/h 77 % 0.0 mm
17:19 17.2 °C 12.9 °C 1024.6 hPa WSW 6.4 km/h 6.4 km/h 76 % 0.0 mm
17:20 17.2 °C 12.9 °C 1024.6 hPa WSW 5.6 km/h 5.6 km/h 76 % 0.0 mm
17:25 17.2 °C 12.9 °C 1024.6 hPa WSW 6.4 km/h 6.4 km/h 76 % 0.0 mm
17:30 17.2 °C 13.1 °C 1024.6 hPa WSW 5.6 km/h 5.6 km/h 77 % 0.0 mm
17:31 17.2 °C 13.1 °C 1024.6 hPa WSW 6.4 km/h 6.4 km/h 77 % 0.0 mm
17:36 17.1 °C 13.0 °C 1024.6 hPa WSW 6.4 km/h 6.4 km/h 77 % 0.0 mm
17:37 17.1 °C 13.0 °C 1024.6 hPa WSW 6.4 km/h 6.4 km/h 77 % 0.0 mm
17:40 16.9 °C 12.9 °C 1024.6 hPa WSW 5.6 km/h 5.6 km/h 77 % 0.0 mm
17:44 16.8 °C 13.0 °C 1024.6 hPa WSW 3.7 km/h 3.7 km/h 78 % 0.0 mm
17:49 16.8 °C 13.0 °C 1024.6 hPa WSW 3.7 km/h 3.7 km/h 78 % 0.0 mm
17:50 16.8 °C 12.9 °C 1024.6 hPa WSW 3.7 km/h 3.7 km/h 78 % 0.0 mm
17:55 16.8 °C 12.9 °C 1024.6 hPa WSW 3.7 km/h 3.7 km/h 78 % 0.0 mm
17:58 16.7 °C 12.9 °C 1024.6 hPa WSW 3.7 km/h 3.7 km/h 78 % 0.0 mm
18:00 16.7 °C 12.8 °C 1024.6 hPa WSW 5.6 km/h 5.6 km/h 78 % 0.0 mm
18:03 16.6 °C 12.8 °C 1024.6 hPa WSW 5.6 km/h 5.6 km/h 78 % 0.0 mm
18:08 16.5 °C 12.7 °C 1024.6 hPa WSW 5.6 km/h 5.6 km/h 78 % 0.0 mm
18:09 16.5 °C 12.4 °C 1024.9 hPa WSW 5.6 km/h 5.6 km/h 77 % 0.0 mm
18:12 16.4 °C 12.6 °C 1024.9 hPa WSW 5.6 km/h 5.8 km/h 78 % 0.0 mm
18:15 16.4 °C 12.6 °C 1024.9 hPa WSW 5.6 km/h 5.6 km/h 78 % 0.0 mm
18:18 16.4 °C 12.6 °C 1024.9 hPa WSW 5.6 km/h 5.6 km/h 78 % 0.0 mm
18:23 16.3 °C 12.5 °C 1024.9 hPa WSW 6.4 km/h 6.4 km/h 78 % 0.0 mm
18:28 16.3 °C 12.4 °C 1024.9 hPa WSW 5.6 km/h 5.6 km/h 78 % 0.0 mm
18:30 16.2 °C 12.4 °C 1024.9 hPa WSW 5.6 km/h 5.6 km/h 78 % 0.0 mm
18:33 16.2 °C 12.4 °C 1024.9 hPa WSW 5.6 km/h 5.6 km/h 78 % 0.0 mm
18:38 16.2 °C 12.1 °C 1025.3 hPa WSW 5.6 km/h 5.6 km/h 77 % 0.0 mm
18:39 16.2 °C 12.1 °C 1025.3 hPa WSW 5.6 km/h 5.6 km/h 77 % 0.0 mm
18:44 16.2 °C 12.1 °C 1025.3 hPa WSW 5.6 km/h 5.6 km/h 77 % 0.0 mm
18:49 16.2 °C 12.1 °C 1025.3 hPa WSW 3.7 km/h 3.7 km/h 77 % 0.0 mm
18:51 16.2 °C 12.1 °C 1025.3 hPa WSW 5.6 km/h 5.6 km/h 77 % 0.0 mm
18:56 16.2 °C 12.1 °C 1025.3 hPa WSW 3.7 km/h 3.7 km/h 77 % 0.0 mm
18:58 16.2 °C 12.1 °C 1025.3 hPa WSW 3.7 km/h 3.7 km/h 77 % 0.0 mm
19:02 16.2 °C 12.1 °C 1025.3 hPa WSW 3.7 km/h 3.7 km/h 77 % 0.0 mm
19:06 16.1 °C 12.3 °C 1025.3 hPa WSW 3.7 km/h 3.7 km/h 78 % 0.0 mm
19:09 16.1 °C 12.2 °C 1025.3 hPa WSW 5.6 km/h 5.6 km/h 78 % 0.0 mm
19:14 15.8 °C 12.0 °C 1025.3 hPa WSW 5.6 km/h 5.6 km/h 78 % 0.0 mm
19:15 15.8 °C 11.9 °C 1025.3 hPa WSW 5.6 km/h 5.6 km/h 78 % 0.0 mm
19:16 15.8 °C 12.2 °C 1025.3 hPa WSW 5.6 km/h 5.6 km/h 79 % 0.0 mm
19:21 15.5 °C 11.9 °C 1025.3 hPa WSW 5.6 km/h 5.6 km/h 79 % 0.0 mm
19:22 15.5 °C 11.9 °C 1025.3 hPa WSW 5.6 km/h 5.6 km/h 79 % 0.0 mm
19:27 15.4 °C 12.0 °C 1025.3 hPa Calm     80 % 0.0 mm
19:28 15.4 °C 12.0 °C 1025.3 hPa Calm     80 % 0.0 mm
19:33 15.4 °C 12.0 °C 1025.3 hPa Calm     80 % 0.0 mm
19:34 15.5 °C 12.1 °C 1025.3 hPa Calm     80 % 0.0 mm
19:36 15.5 °C 12.1 °C 1025.3 hPa Calm     80 % 0.0 mm
19:40 15.4 °C 11.9 °C 1025.3 hPa Calm     80 % 0.0 mm
19:45 15.3 °C 11.8 °C 1025.3 hPa WSW 3.7 km/h 3.7 km/h 80 % 0.0 mm
19:46 15.3 °C 11.8 °C 1025.3 hPa WSW 3.7 km/h 3.7 km/h 80 % 0.0 mm
19:51 15.2 °C 11.9 °C 1025.3 hPa WSW 6.4 km/h 6.4 km/h 81 % 0.0 mm
19:52 15.2 °C 11.9 °C 1025.6 hPa WSW 7.4 km/h 7.4 km/h 81 % 0.0 mm
19:53 15.1 °C 11.9 °C 1025.6 hPa WSW 5.6 km/h 5.6 km/h 81 % 0.0 mm
19:58 15.1 °C 11.9 °C 1025.6 hPa WSW 5.6 km/h 5.6 km/h 81 % 0.0 mm
20:00 15.1 °C 11.9 °C 1025.6 hPa WSW 3.7 km/h 3.7 km/h 81 % 0.0 mm
20:05 15.1 °C 11.9 °C 1025.6 hPa WSW 5.6 km/h 5.6 km/h 81 % 0.0 mm
20:10 15.1 °C 11.9 °C 1025.6 hPa WSW 5.6 km/h 5.6 km/h 81 % 0.0 mm
20:15 15.1 °C 11.8 °C 1026.0 hPa WSW 5.6 km/h 5.6 km/h 81 % 0.0 mm
20:16 15.0 °C 11.8 °C 1026.0 hPa WSW 5.6 km/h 5.6 km/h 81 % 0.0 mm
20:18 15.0 °C 11.8 °C 1026.0 hPa WSW 5.6 km/h 5.6 km/h 81 % 0.0 mm
20:23 15.0 °C 11.8 °C 1026.0 hPa WSW 3.7 km/h   81 % 0.0 mm
20:25 15.0 °C 11.8 °C 1026.0 hPa Calm     81 % 0.0 mm
20:26 15.0 °C 11.8 °C 1026.0 hPa Calm     81 % 0.0 mm
20:31 15.0 °C 11.8 °C 1026.0 hPa Calm     81 % 0.0 mm
20:35 14.9 °C 11.7 °C 1026.0 hPa Calm     81 % 0.0 mm
20:36 14.9 °C 11.7 °C 1026.0 hPa Calm     81 % 0.0 mm
20:41 14.9 °C 11.7 °C 1026.0 hPa Calm     81 % 0.0 mm
20:43 14.9 °C 11.7 °C 1026.0 hPa Calm     81 % 0.0 mm
20:48 14.8 °C 11.6 °C 1026.3 hPa Calm     81 % 0.0 mm
20:50 14.8 °C 11.6 °C 1026.0 hPa Calm     81 % 0.0 mm
20:53 14.8 °C 11.7 °C 1026.0 hPa Calm     82 % 0.0 mm
20:57 14.8 °C 11.6 °C 1026.3 hPa WSW 6.4 km/h 6.4 km/h 81 % 0.0 mm
20:58 14.8 °C 11.6 °C 1026.3 hPa WSW 5.6 km/h 5.6 km/h 81 % 0.0 mm
21:03 14.8 °C 11.6 °C 1026.3 hPa West 5.6 km/h 5.6 km/h 81 % 0.0 mm
21:08 14.8 °C 11.6 °C 1026.3 hPa Calm     81 % 0.0 mm
21:09 14.8 °C 11.6 °C 1026.3 hPa Calm     81 % 0.0 mm
21:14 14.8 °C 11.3 °C 1026.3 hPa West 5.6 km/h 5.8 km/h 80 % 0.0 mm
21:15 14.8 °C 11.3 °C 1026.3 hPa West 7.4 km/h 7.4 km/h 80 % 0.0 mm
21:16 14.8 °C 11.3 °C 1026.3 hPa West 7.4 km/h 7.4 km/h 80 % 0.0 mm
21:21 14.7 °C 11.3 °C 1026.3 hPa NW 7.4 km/h 7.4 km/h 80 % 0.0 mm
21:22 14.7 °C 11.3 °C 1026.3 hPa NW 5.6 km/h 5.6 km/h 80 % 0.0 mm
21:27 14.6 °C 11.2 °C 1026.3 hPa NW 8.0 km/h 8.0 km/h 80 % 0.0 mm
21:32 14.5 °C 11.1 °C 1026.3 hPa NNW 9.3 km/h 9.3 km/h 80 % 0.0 mm
21:33 14.5 °C 11.1 °C 1026.3 hPa NNW 9.3 km/h 9.3 km/h 80 % 0.0 mm
21:36 14.5 °C 11.1 °C 1026.3 hPa NNW 7.4 km/h 7.4 km/h 80 % 0.0 mm
21:38 14.4 °C 11.1 °C 1026.3 hPa NNW 9.7 km/h 9.7 km/h 80 % 0.0 mm
21:43 14.4 °C 11.0 °C 1026.3 hPa NNW 7.4 km/h 7.4 km/h 80 % 0.0 mm
21:44 14.3 °C 10.9 °C 1026.3 hPa NNW 7.4 km/h 7.4 km/h 80 % 0.0 mm
21:47 14.3 °C 11.1 °C 1026.3 hPa NNW 5.6 km/h 6.0 km/h 81 % 0.0 mm
21:52 14.1 °C 10.9 °C 1026.3 hPa North 7.4 km/h 7.4 km/h 81 % 0.0 mm
21:53 14.1 °C 10.8 °C 1026.3 hPa North 7.4 km/h 7.4 km/h 81 % 0.0 mm
21:58 13.9 °C 10.7 °C 1026.0 hPa North 9.7 km/h 9.7 km/h 81 % 0.0 mm
22:00 13.9 °C 10.7 °C 1026.0 hPa North 9.3 km/h 9.3 km/h 81 % 0.0 mm
22:05 13.8 °C 10.8 °C 1026.0 hPa North 11.1 km/h 11.1 km/h 82 % 0.0 mm
22:06 13.8 °C 10.8 °C 1026.3 hPa North 9.3 km/h 9.3 km/h 82 % 0.0 mm
22:11 13.7 °C 10.7 °C 1026.0 hPa North 8.0 km/h 8.0 km/h 82 % 0.0 mm
22:15 13.7 °C 10.7 °C 1026.0 hPa North 8.0 km/h 9.7 km/h 82 % 0.0 mm
22:18 13.6 °C 10.6 °C 1026.0 hPa North 9.7 km/h 9.7 km/h 82 % 0.0 mm
22:23 13.5 °C 10.5 °C 1026.0 hPa North 9.3 km/h 9.3 km/h 82 % 0.0 mm
22:28 13.4 °C 10.4 °C 1026.0 hPa North 5.6 km/h 5.6 km/h 82 % 0.0 mm
22:31 13.4 °C 10.4 °C 1026.0 hPa North 5.6 km/h 5.6 km/h 82 % 0.0 mm
22:36 13.3 °C 10.5 °C 1026.0 hPa North 7.4 km/h 7.4 km/h 83 % 0.0 mm
22:40 13.3 °C 10.5 °C 1026.0 hPa North 4.8 km/h 8.0 km/h 83 % 0.0 mm
22:42 13.3 °C 10.4 °C 1026.0 hPa North 8.0 km/h 8.0 km/h 83 % 0.0 mm
22:47 13.3 °C 10.5 °C 1026.0 hPa North 11.1 km/h 11.1 km/h 83 % 0.0 mm
22:48 13.4 °C 10.6 °C 1026.0 hPa North 11.1 km/h 11.1 km/h 83 % 0.0 mm
22:53 13.4 °C 10.4 °C 1026.0 hPa North 7.4 km/h 7.4 km/h 82 % 0.0 mm
22:54 13.4 °C 10.4 °C 1026.0 hPa North 7.4 km/h 7.4 km/h 82 % 0.0 mm
22:59 13.4 °C 10.4 °C 1026.0 hPa North 7.4 km/h 7.4 km/h 82 % 0.0 mm
23:02 13.4 °C 10.4 °C 1026.0 hPa North 8.0 km/h 8.0 km/h 82 % 0.0 mm
23:04 13.4 °C 10.4 °C 1026.0 hPa North 7.4 km/h 7.4 km/h 82 % 0.0 mm
23:09 13.4 °C 10.4 °C 1026.0 hPa North 7.4 km/h 7.4 km/h 82 % 0.0 mm
23:10 13.4 °C 10.4 °C 1026.0 hPa North 7.4 km/h 7.4 km/h 82 % 0.0 mm
23:13 13.3 °C 10.3 °C 1026.0 hPa North 9.3 km/h 9.3 km/h 82 % 0.0 mm
23:15 13.3 °C 10.3 °C 1026.0 hPa North 7.4 km/h 7.4 km/h 82 % 0.0 mm
23:20 13.3 °C 10.3 °C 1026.0 hPa North 7.4 km/h 7.4 km/h 82 % 0.0 mm
23:21 13.3 °C 10.3 °C 1026.0 hPa North 7.4 km/h 7.4 km/h 82 % 0.0 mm
23:26 13.2 °C 10.2 °C 1026.0 hPa North 9.7 km/h 9.7 km/h 82 % 0.0 mm
23:30 13.2 °C 10.2 °C 1026.0 hPa North 9.3 km/h 9.3 km/h 82 % 0.0 mm
23:31 13.1 °C 10.1 °C 1026.0 hPa North 12.9 km/h 12.9 km/h 82 % 0.0 mm
23:36 13.1 °C 10.1 °C 1026.0 hPa North 14.8 km/h 14.8 km/h 82 % 0.0 mm
23:37 13.1 °C 10.1 °C 1026.0 hPa North 14.8 km/h 14.8 km/h 82 % 0.0 mm
23:42 12.9 °C 9.9 °C 1025.6 hPa North 14.8 km/h 14.8 km/h 82 % 0.0 mm
23:43 12.9 °C 9.9 °C 1025.6 hPa North 11.3 km/h 11.3 km/h 82 % 0.0 mm
23:48 12.9 °C 10.1 °C 1026.0 hPa North 14.5 km/h 14.5 km/h 83 % 0.0 mm
23:50 12.8 °C 10.0 °C 1026.0 hPa North 11.1 km/h 11.1 km/h 83 % 0.0 mm
23:54 12.9 °C 10.1 °C 1026.0 hPa North 13.0 km/h 13.0 km/h 83 % 0.0 mm
23:59 12.9 °C 10.1 °C 1026.0 hPa North 9.3 km/h 9.3 km/h 83 % 0.0 mm
Puerto Banus, Marbella
Elogios de Weather Underground - 2.25 mb

Guión original por  Jim McMurry - jmcmurry@mwt.net Adaptado para la plantilla por  Wim van der Kuil - Leuven-Template.eu

Usted encontrará nuestra información del tiempo también en:

Weather Underground

Iberian Peninsula Weather Network